Time;durP1;ratioP1;P1;durP2;ratioP2;P2;SDS_P1;SDS_P2;PMS_P1;PMS_P2;Temp;Humidity;BMP_temperature;BMP_pressure;BME280_temperature;BME280_humidity;BME280_pressure;Samples;Min_cycle;Max_cycle;Signal;HPM_P1;HPM_P2
2022/01/26 00:07:21;;;;;;;15.77;6.45;;;;;;;-5.32;64.95;98663.06;5034645;28;20033;-59
2022/01/26 00:09:47;;;;;;;17.00;7.05;;;;;;;-5.32;66.10;98663.88;5033321;28;20410;-59
2022/01/26 00:12:13;;;;;;;13.07;6.15;;;;;;;-5.33;65.08;98672.56;5033524;28;20052;-58
2022/01/26 00:14:41;;;;;;;15.80;7.47;;;;;;;-5.35;65.07;98671.94;5034140;28;20128;-59
2022/01/26 00:17:10;;;;;;;15.20;7.47;;;;;;;-5.34;64.85;98677.91;5034157;28;20044;-59
2022/01/26 00:19:57;;;;;;;17.48;6.75;;;;;;;-5.35;66.16;98679.69;5033053;28;20056;-59
2022/01/26 00:22:43;;;;;;;14.43;7.22;;;;;;;-5.33;65.14;98672.56;5032670;28;20060;-59
2022/01/26 00:28:19;;;;;;;14.07;6.75;;;;;;;-5.31;65.57;98680.97;5034048;28;20041;-59
2022/01/26 00:38:59;;;;;;;12.60;6.78;;;;;;;-5.35;66.08;98676.28;5032745;28;20196;-60
2022/01/26 00:41:34;;;;;;;15.95;6.70;;;;;;;-5.38;65.31;98666.25;5034102;28;20041;-59
2022/01/26 00:44:01;;;;;;;17.92;7.43;;;;;;;-5.35;65.77;98666.75;5034096;28;20136;-57
2022/01/26 00:46:26;;;;;;;17.75;7.63;;;;;;;-5.38;65.22;98664.50;5032619;28;20515;-58
2022/01/26 00:48:52;;;;;;;17.83;7.70;;;;;;;-5.37;65.57;98663.50;5033799;28;20048;-59
2022/01/26 00:51:21;;;;;;;19.48;8.23;;;;;;;-5.31;65.67;98652.56;5015980;28;20085;-60
2022/01/26 00:53:55;;;;;;;20.00;8.30;;;;;;;-5.26;65.23;98646.94;5031892;28;20042;-59
2022/01/26 00:56:21;;;;;;;13.52;6.80;;;;;;;-5.32;65.90;98656.13;5033972;28;20103;-58
2022/01/26 00:58:46;;;;;;;13.70;7.20;;;;;;;-5.27;65.35;98655.66;5033572;28;20049;-59
2022/01/26 01:01:12;;;;;;;15.93;7.47;;;;;;;-5.27;65.06;98658.22;5033890;28;20050;-59
2022/01/26 01:03:43;;;;;;;16.02;7.88;;;;;;;-5.28;65.37;98657.44;5015781;28;20498;-60
2022/01/26 01:06:17;;;;;;;17.35;7.53;;;;;;;-5.32;65.84;98658.72;5032549;28;20051;-60
2022/01/26 01:08:45;;;;;;;15.27;6.57;;;;;;;-5.38;65.74;98649.00;5033626;28;20049;-59
2022/01/26 01:11:11;;;;;;;18.58;7.93;;;;;;;-5.33;65.99;98654.47;5033889;28;20128;-58
2022/01/26 01:13:40;;;;;;;19.40;8.40;;;;;;;-5.37;65.00;98665.28;5031948;28;20045;-60
2022/01/26 01:16:07;;;;;;;18.55;9.07;;;;;;;-5.46;65.51;98661.06;5032048;28;20090;-59
2022/01/26 01:29:27;;;;;;;17.38;8.43;;;;;;;-5.69;66.83;98665.91;5033135;28;20079;-59
2022/01/26 01:31:54;;;;;;;21.30;8.10;;;;;;;-5.63;66.75;98660.94;5032627;28;20495;-59
2022/01/26 01:34:39;;;;;;;22.70;9.25;;;;;;;-5.60;68.04;98652.88;5032978;28;20088;-60
2022/01/26 01:37:08;;;;;;;21.15;9.02;;;;;;;-5.48;67.37;98653.44;5033170;28;20056;-60
2022/01/26 01:39:35;;;;;;;17.67;8.85;;;;;;;-5.50;66.51;98652.78;5032861;28;20087;-59
2022/01/26 01:42:02;;;;;;;20.52;10.60;;;;;;;-5.54;66.94;98651.47;5032406;28;20565;-58
2022/01/26 01:44:28;;;;;;;20.92;10.63;;;;;;;-5.60;67.57;98660.63;5031700;28;20041;-59
2022/01/26 01:46:55;;;;;;;30.42;12.75;;;;;;;-5.49;68.40;98664.75;5032953;28;21686;-58
2022/01/26 01:49:21;;;;;;;23.25;10.40;;;;;;;-5.45;66.98;98658.31;5032902;28;20045;-58
2022/01/26 01:52:01;;;;;;;21.83;9.40;;;;;;;-5.47;67.00;98662.84;5031225;28;20124;-59
2022/01/26 01:54:27;;;;;;;24.30;10.20;;;;;;;-5.55;67.63;98668.75;5014910;28;20047;-59
2022/01/26 01:56:56;;;;;;;30.40;13.05;;;;;;;-5.47;68.17;98662.84;5032421;28;20045;-60
2022/01/26 01:59:24;;;;;;;36.05;14.02;;;;;;;-5.36;67.32;98659.97;5031454;28;20037;-59
2022/01/26 02:01:50;;;;;;;30.17;12.32;;;;;;;-5.34;67.94;98670.16;5031062;28;20083;-60
2022/01/26 02:04:16;;;;;;;34.40;13.55;;;;;;;-5.33;67.05;98672.56;5030963;28;20065;-60
2022/01/26 02:06:43;;;;;;;32.60;14.38;;;;;;;-5.30;67.03;98666.28;5031996;28;20450;-59
2022/01/26 02:09:11;;;;;;;28.40;13.95;;;;;;;-5.49;67.46;98678.47;5032504;28;20045;-61
2022/01/26 02:11:55;;;;;;;33.15;11.90;;;;;;;-5.49;68.17;98675.06;5031928;28;20491;-60
2022/01/26 02:14:30;;;;;;;28.85;12.57;;;;;;;-5.56;68.10;98672.28;5032303;28;20107;-60
2022/01/26 02:59:57;;;;;;;32.80;14.23;;;;;;;-5.27;69.83;98692.63;5011303;28;20096;-60
2022/01/26 03:02:52;;;;;;;30.40;11.60;;;;;;;-5.16;69.94;98686.38;5030567;28;20120;-60
2022/01/26 03:05:13;;;;;;;25.30;11.48;;;;;;;-5.16;70.05;98695.91;5031513;28;20057;-60
2022/01/26 03:07:47;;;;;;;23.38;9.88;;;;;;;-5.20;70.29;98697.19;5031290;28;20419;-60
2022/01/26 03:10:44;;;;;;;26.77;10.73;;;;;;;-5.10;70.16;98692.72;5031780;28;20139;-60
2022/01/26 03:13:05;;;;;;;26.55;10.48;;;;;;;-5.03;68.91;98696.28;5030232;28;20160;-61
2022/01/26 03:15:38;;;;;;;28.60;10.75;;;;;;;-5.12;69.48;98694.63;5031735;28;20068;-60
2022/01/26 03:20:50;;;;;;;20.80;9.95;;;;;;;-5.27;70.94;98697.78;5020505;28;20131;-60
2022/01/26 03:28:58;;;;;;;24.55;11.27;;;;;;;-5.01;70.34;98696.97;5035149;28;20095;-59
2022/01/26 03:34:14;;;;;;;27.92;10.80;;;;;;;-4.85;69.62;98691.88;5035226;28;20061;-59
2022/01/26 03:36:49;;;;;;;27.70;10.05;;;;;;;-4.87;68.96;98688.63;5035179;28;20666;-59
2022/01/26 03:39:18;;;;;;;25.45;10.13;;;;;;;-4.97;69.60;98689.69;5035158;28;20044;-59
2022/01/26 03:41:49;;;;;;;22.23;10.70;;;;;;;-4.97;69.96;98684.53;5035205;28;20041;-59
2022/01/26 03:44:15;;;;;;;29.90;10.57;;;;;;;-4.97;70.95;98684.53;5035113;28;20422;-58
2022/01/26 03:46:42;;;;;;;21.00;9.65;;;;;;;-4.91;70.26;98676.97;5035168;28;20136;-59
2022/01/26 03:49:08;;;;;;;30.75;12.02;;;;;;;-4.90;70.43;98691.53;5035099;28;20038;-60
2022/01/26 03:51:34;;;;;;;28.55;11.15;;;;;;;-4.89;69.81;98685.38;5033551;28;20099;-60
2022/01/26 03:54:01;;;;;;;32.13;12.50;;;;;;;-4.85;70.53;98698.81;5034113;28;20047;-60
2022/01/26 03:56:27;;;;;;;28.83;11.35;;;;;;;-4.93;69.66;98691.03;5033472;28;20065;-60
2022/01/26 03:58:52;;;;;;;31.00;12.93;;;;;;;-4.97;70.89;98700.88;5034829;28;20072;-60
2022/01/26 04:01:19;;;;;;;30.80;14.02;;;;;;;-4.73;70.55;98692.41;5034732;28;20037;-62
2022/01/26 04:03:45;;;;;;;32.20;12.60;;;;;;;-4.70;70.28;98688.69;5034542;28;20042;-59
2022/01/26 04:06:10;;;;;;;29.63;13.52;;;;;;;-4.74;69.55;98695.13;5034706;28;20506;-60
2022/01/26 04:08:39;;;;;;;30.55;12.27;;;;;;;-4.77;69.22;98698.03;5013126;28;20038;-61
2022/01/26 04:13:50;;;;;;;27.13;11.00;;;;;;;-4.66;70.16;98703.72;5033446;28;20124;-59
2022/01/26 04:16:16;;;;;;;26.40;12.60;;;;;;;-4.53;69.48;98708.44;5033310;28;20427;-60
2022/01/26 04:18:42;;;;;;;31.13;12.98;;;;;;;-4.67;69.87;98704.69;5034545;28;20041;-59
2022/01/26 04:26:36;;;;;;;30.70;14.40;;;;;;;-4.66;70.85;98700.34;5036336;28;20064;-59
2022/01/26 04:29:08;;;;;;;29.08;12.05;;;;;;;-4.56;69.75;98708.75;5033893;28;20041;-59
2022/01/26 04:31:37;;;;;;;27.77;11.30;;;;;;;-4.61;70.15;98711.03;5013243;28;20034;-60
2022/01/26 04:34:03;;;;;;;30.27;11.23;;;;;;;-4.73;69.67;98704.53;5012893;28;20045;-60
2022/01/26 04:36:45;;;;;;;23.50;10.68;;;;;;;-4.84;70.60;98703.03;5012803;28;20049;-59
2022/01/26 04:39:15;;;;;;;33.92;12.02;;;;;;;-4.76;70.80;98704.81;5029332;28;20474;-59
2022/01/26 04:44:14;;;;;;;28.73;12.80;;;;;;;-4.72;70.21;98698.38;5033681;28;20458;-60
2022/01/26 04:46:40;;;;;;;27.95;11.23;;;;;;;-4.74;70.30;98706.28;5032330;28;20389;-59
2022/01/26 04:49:06;;;;;;;24.52;11.00;;;;;;;-4.77;70.21;98698.03;5033793;28;20053;-59
2022/01/26 04:51:32;;;;;;;32.03;12.90;;;;;;;-4.65;70.48;98699.34;5031586;28;20119;-60
2022/01/26 04:53:57;;;;;;;26.90;10.98;;;;;;;-4.49;70.04;98696.81;5033472;28;20493;-57
2022/01/26 04:56:23;;;;;;;25.40;11.02;;;;;;;-4.39;70.02;98701.84;5033107;28;20041;-59
2022/01/26 04:58:49;;;;;;;30.70;11.60;;;;;;;-4.36;70.15;98701.53;5032025;28;20414;-60
2022/01/26 05:01:15;;;;;;;30.75;12.40;;;;;;;-4.44;69.29;98706.69;5033636;28;20176;-60
2022/01/26 05:03:41;;;;;;;41.35;14.15;;;;;;;-4.49;70.04;98714.13;5033174;28;20048;-59
2022/01/26 05:06:06;;;;;;;36.75;16.70;;;;;;;-4.54;70.06;98719.75;5033519;28;20037;-58
2022/01/26 05:08:32;;;;;;;39.45;18.05;;;;;;;-4.45;71.16;98724.00;5032703;28;20499;-59
2022/01/26 05:11:00;;;;;;;44.08;16.90;;;;;;;-4.38;70.15;98716.44;5032746;28;20033;-58
2022/01/26 05:13:25;;;;;;;37.72;15.93;;;;;;;-4.39;69.29;98718.19;5032829;28;20053;-58
2022/01/26 05:15:51;;;;;;;38.05;15.07;;;;;;;-4.53;70.71;98713.63;5033117;28;20052;-59
2022/01/26 05:18:17;;;;;;;42.67;16.90;;;;;;;-4.49;70.08;98719.31;5033083;28;20094;-58
2022/01/26 05:20:42;;;;;;;45.15;17.85;;;;;;;-4.42;70.55;98721.09;5031521;28;20041;-60
2022/01/26 05:23:09;;;;;;;41.78;18.10;;;;;;;-4.43;70.86;98716.88;5032843;28;20056;-58
2022/01/26 05:25:35;;;;;;;50.40;19.23;;;;;;;-4.49;70.46;98714.94;5033167;28;20064;-59
2022/01/26 05:28:00;;;;;;;44.70;18.77;;;;;;;-4.44;70.65;98719.63;5032653;28;20084;-59
2022/01/26 05:30:27;;;;;;;50.60;19.38;;;;;;;-4.55;71.33;98709.59;5031156;28;20037;-59
2022/01/26 05:32:53;;;;;;;48.38;17.20;;;;;;;-4.62;71.67;98715.41;5015072;28;20045;-60
2022/01/26 05:35:19;;;;;;;44.08;18.13;;;;;;;-4.56;71.80;98719.09;5030608;28;20092;-60
2022/01/26 05:37:45;;;;;;;44.03;17.60;;;;;;;-4.47;71.76;98720.78;5032307;28;20124;-59
2022/01/26 05:40:12;;;;;;;47.55;17.63;;;;;;;-4.45;71.74;98716.22;5032280;28;20057;-59
2022/01/26 05:42:38;;;;;;;39.72;14.73;;;;;;;-4.37;71.54;98716.25;5032383;28;20045;-59
2022/01/26 05:45:08;;;;;;;38.80;15.88;;;;;;;-4.30;71.31;98715.63;5032720;28;20049;-59
2022/01/26 05:47:34;;;;;;;37.20;15.63;;;;;;;-4.30;71.37;98706.06;5025157;28;20048;-59
2022/01/26 05:50:01;;;;;;;45.75;17.92;;;;;;;-4.24;71.14;98708.03;5026604;28;20521;-58
2022/01/26 05:52:27;;;;;;;50.63;16.40;;;;;;;-4.18;71.50;98722.91;5029278;28;20065;-58
2022/01/26 05:54:52;;;;;;;36.40;15.50;;;;;;;-4.26;71.76;98711.75;5029615;28;20084;-59
2022/01/26 05:57:18;;;;;;;37.03;13.60;;;;;;;-4.09;71.82;98717.75;5027708;28;20041;-57
2022/01/26 05:59:44;;;;;;;33.95;13.68;;;;;;;-4.06;71.19;98713.06;5024564;28;20045;-58
2022/01/26 06:02:10;;;;;;;36.67;13.23;;;;;;;-4.13;71.33;98718.06;5027286;28;20048;-56
2022/01/26 06:04:35;;;;;;;38.90;17.33;;;;;;;-4.12;71.89;98711.94;5029019;28;20037;-59
2022/01/26 06:07:01;;;;;;;43.45;18.63;;;;;;;-4.24;72.15;98712.41;5028332;28;20045;-60
2022/01/26 06:09:27;;;;;;;34.88;13.52;;;;;;;-4.23;73.03;98708.84;5013162;28;20053;-59
2022/01/26 06:11:53;;;;;;;31.13;11.63;;;;;;;-4.38;73.14;98714.66;5028071;28;20099;-59
2022/01/26 06:14:18;;;;;;;38.88;14.63;;;;;;;-4.35;73.32;98716.91;5012140;28;20050;-60
2022/01/26 06:16:44;;;;;;;38.10;14.55;;;;;;;-4.20;73.16;98719.69;5028252;28;20048;-59
2022/01/26 06:19:10;;;;;;;43.20;14.15;;;;;;;-4.14;72.63;98713.88;5031278;28;20045;-57
2022/01/26 06:21:36;;;;;;;34.67;13.15;;;;;;;-4.07;72.79;98710.66;5011346;28;20161;-60
2022/01/26 06:24:02;;;;;;;38.38;13.48;;;;;;;-4.13;72.61;98719.88;5027249;28;20042;-60
2022/01/26 06:26:27;;;;;;;33.47;13.07;;;;;;;-4.12;71.99;98726.66;5027859;28;20045;-60
2022/01/26 06:28:53;;;;;;;43.38;14.48;;;;;;;-3.95;72.84;98714.53;5024876;28;20045;-59
2022/01/26 06:31:19;;;;;;;32.47;12.90;;;;;;;-3.84;71.24;98723.78;5026220;28;20037;-60
2022/01/26 06:33:47;;;;;;;37.88;11.85;;;;;;;-3.89;71.57;98729.44;5011714;28;20103;-58
2022/01/26 06:36:14;;;;;;;27.13;12.00;;;;;;;-3.93;71.59;98725.56;4994499;28;20119;-60
2022/01/26 06:38:47;;;;;;;30.48;11.57;;;;;;;-3.84;72.55;98726.38;4990440;28;20045;-58
2022/01/26 06:41:22;;;;;;;23.50;10.57;;;;;;;-3.78;71.02;98723.94;4973173;28;20050;-60
2022/01/26 06:43:53;;;;;;;33.08;12.57;;;;;;;-3.66;71.62;98729.59;5025893;28;20578;-59
2022/01/26 06:46:28;;;;;;;;;;;;;;;-3.67;70.72;98733.97;5026857;28;20074;-59
2022/01/26 06:51:46;;;;;;;29.27;9.98;;;;;;;-3.85;71.72;98737.69;5006939;28;20499;-59
2022/01/26 06:54:11;;;;;;;28.80;10.98;;;;;;;-3.80;71.64;98740.59;5024020;28;20048;-60
2022/01/26 06:56:37;;;;;;;34.97;12.82;;;;;;;-3.86;72.69;98734.28;5007210;28;20034;-62
2022/01/26 06:59:03;;;;;;;29.25;10.90;;;;;;;-3.78;72.06;98728.31;5024887;28;20033;-60
2022/01/26 07:01:29;;;;;;;34.03;11.73;;;;;;;-3.78;71.91;98730.91;4977075;28;20033;-60
2022/01/26 07:03:54;;;;;;;31.27;11.70;;;;;;;-3.77;71.33;98735.09;5028222;28;20132;-60
2022/01/26 07:06:20;;;;;;;24.67;10.95;;;;;;;-3.82;72.43;98740.78;5027918;28;20052;-59
2022/01/26 07:08:46;;;;;;;25.60;10.30;;;;;;;-3.75;72.21;98743.53;5027808;28;20094;-64
2022/01/26 07:11:12;;;;;;;26.65;10.20;;;;;;;-3.59;71.95;98748.69;5017538;28;20403;-62
2022/01/26 07:13:39;;;;;;;27.50;10.68;;;;;;;-3.80;72.79;98744.00;5026482;28;20041;-59
2022/01/26 07:21:34;;;;;;;25.20;9.82;;;;;;;-3.66;73.19;98735.59;5027158;28;20042;-60
2022/01/26 07:24:00;;;;;;;23.35;9.20;;;;;;;-3.56;72.42;98745.81;4994676;28;20506;-60
2022/01/26 07:26:29;;;;;;;27.80;11.10;;;;;;;-3.62;73.33;98738.66;5025674;28;20049;-59
2022/01/26 07:29:05;;;;;;;22.33;9.10;;;;;;;-3.55;73.32;98741.44;5011684;28;20045;-59
2022/01/26 07:31:34;;;;;;;20.55;9.52;;;;;;;-3.48;73.46;98742.38;5026523;28;20048;-58
2022/01/26 07:34:00;;;;;;;23.15;9.27;;;;;;;-3.47;73.32;98738.81;4973084;28;20550;-58
2022/01/26 07:36:26;;;;;;;23.77;9.05;;;;;;;-3.32;72.99;98751.94;4998761;28;20112;-58
2022/01/26 07:38:55;;;;;;;28.13;10.32;;;;;;;-3.33;73.27;98756.28;5007431;28;20088;-57
2022/01/26 07:41:21;;;;;;;21.50;9.50;;;;;;;-3.34;73.09;98749.50;5021009;28;20045;-58
2022/01/26 07:43:47;;;;;;;23.67;9.25;;;;;;;-3.27;72.64;98755.63;5009012;28;20425;-59
2022/01/26 07:46:13;;;;;;;21.80;8.23;;;;;;;-3.37;72.74;98749.84;5026470;28;20042;-59
2022/01/26 07:48:39;;;;;;;22.40;8.82;;;;;;;-3.29;73.00;98754.22;5025474;28;20495;-59
2022/01/26 07:51:05;;;;;;;26.02;10.30;;;;;;;-3.32;72.88;98750.16;5025212;28;20045;-59
2022/01/26 07:53:32;;;;;;;21.98;8.73;;;;;;;-3.20;72.59;98754.03;5026541;28;20140;-59
2022/01/26 07:55:58;;;;;;;21.23;8.63;;;;;;;-3.26;72.93;98748.69;5024046;28;20041;-58
2022/01/26 07:58:25;;;;;;;19.30;8.85;;;;;;;-3.19;72.99;98762.59;5028952;28;20049;-56
2022/01/26 08:00:50;;;;;;;17.38;8.82;;;;;;;-3.04;72.11;98758.34;5028577;28;20045;-59
2022/01/26 08:03:17;;;;;;;19.98;8.50;;;;;;;-3.04;72.26;98758.34;5026457;28;20045;-58
2022/01/26 08:05:44;;;;;;;17.88;8.55;;;;;;;-2.85;72.25;98770.16;5022531;28;20084;-60
2022/01/26 08:08:09;;;;;;;19.48;7.93;;;;;;;-2.87;72.16;98768.72;5028923;28;20077;-59
2022/01/26 08:10:35;;;;;;;16.38;7.57;;;;;;;-3.11;72.08;98766.97;5012111;28;20072;-58
2022/01/26 08:13:01;;;;;;;14.25;6.75;;;;;;;-3.02;71.91;98773.75;5013607;28;20033;-58
2022/01/26 08:15:27;;;;;;;16.27;6.95;;;;;;;-3.01;72.59;98767.59;5026234;28;20091;-58
2022/01/26 08:17:54;;;;;;;17.92;7.95;;;;;;;-3.03;72.88;98777.31;5029605;28;20590;-60
2022/01/26 08:20:22;;;;;;;17.08;7.05;;;;;;;-3.01;72.86;98767.59;5029503;28;20042;-57
2022/01/26 08:22:47;;;;;;;16.77;6.47;;;;;;;-2.90;71.83;98771.63;5028773;28;20064;-59
2022/01/26 08:25:13;;;;;;;17.67;6.38;;;;;;;-2.87;72.02;98763.53;5028123;28;20479;-58
2022/01/26 08:27:43;;;;;;;13.60;6.20;;;;;;;-2.79;71.59;98764.31;5028785;28;20045;-57
2022/01/26 08:30:14;;;;;;;16.55;6.35;;;;;;;-2.81;71.53;98786.19;5031316;28;20051;-59
2022/01/26 08:32:40;;;;;;;14.65;5.95;;;;;;;-2.70;71.80;98778.06;5013941;28;20465;-58
2022/01/26 08:35:06;;;;;;;13.00;6.43;;;;;;;-2.63;71.01;98775.59;5028481;28;20049;-59
2022/01/26 08:37:32;;;;;;;15.70;5.95;;;;;;;-2.61;70.67;98777.06;5028286;28;20152;-58
2022/01/26 08:39:58;;;;;;;9.98;4.75;;;;;;;-2.44;69.96;98785.59;4994822;28;20202;-57
2022/01/26 08:42:25;;;;;;;12.23;5.50;;;;;;;-2.35;70.05;98773.41;4989702;28;20064;-56
2022/01/26 08:44:52;;;;;;;13.95;5.90;;;;;;;-2.35;69.59;98778.59;5029036;28;20427;-60
2022/01/26 08:47:19;;;;;;;7.22;3.63;;;;;;;-2.42;69.15;98772.44;5012236;28;20029;-56
2022/01/26 08:49:44;;;;;;;8.35;4.43;;;;;;;-2.66;70.12;98781.94;5009344;28;20056;-60
2022/01/26 08:52:10;;;;;;;12.63;5.75;;;;;;;-2.57;69.89;98783.50;5017686;28;20407;-60
2022/01/26 08:54:36;;;;;;;10.68;5.47;;;;;;;-2.51;69.62;98777.66;5028552;28;20037;-58
2022/01/26 08:57:03;;;;;;;10.07;5.00;;;;;;;-2.35;69.72;98786.38;5029462;28;20048;-58
2022/01/26 08:59:29;;;;;;;9.43;4.70;;;;;;;-2.45;69.69;98780.56;5027333;28;20041;-60
2022/01/26 09:01:55;;;;;;;12.60;5.18;;;;;;;-2.36;69.45;98780.34;5029086;28;20060;-59
2022/01/26 09:04:20;;;;;;;8.32;4.75;;;;;;;-2.35;70.19;98781.19;5029809;28;20053;-59
2022/01/26 09:06:52;;;;;;;10.27;5.25;;;;;;;-2.34;69.69;98793.16;5011917;28;20033;-58
2022/01/26 09:09:19;;;;;;;12.10;5.78;;;;;;;-2.33;70.11;98781.81;5008467;28;20125;-58
2022/01/26 09:11:47;;;;;;;10.65;5.60;;;;;;;-2.19;70.08;98794.06;5009907;28;20048;-59
2022/01/26 09:14:17;;;;;;;9.40;4.20;;;;;;;-2.08;69.17;98792.88;4994591;28;20073;-60
2022/01/26 09:16:43;;;;;;;;;;;;;;;-2.07;69.48;98799.69;5009023;28;20542;-59
2022/01/26 09:19:20;;;;;;;10.50;5.05;;;;;;;-1.93;68.63;98792.97;5024793;28;19917;-59
2022/01/26 09:21:46;;;;;;;8.13;4.72;;;;;;;-1.97;68.82;98792.50;5008904;28;20053;-59
2022/01/26 09:24:12;;;;;;;11.13;4.63;;;;;;;-2.04;69.09;98790.75;5008484;28;20049;-59
2022/01/26 09:26:38;;;;;;;9.07;4.70;;;;;;;-2.00;68.57;98805.84;5010387;28;20034;-60
2022/01/26 09:29:05;;;;;;;9.23;5.28;;;;;;;-1.94;68.81;98799.13;4992576;28;20050;-57
2022/01/26 09:31:31;;;;;;;13.27;5.28;;;;;;;-1.79;68.16;98801.78;5023713;28;20562;-60
2022/01/26 09:33:56;;;;;;;12.43;5.10;;;;;;;-1.86;68.06;98812.06;5010098;28;20088;-57
2022/01/26 09:36:22;;;;;;;11.00;5.82;;;;;;;-1.99;68.65;98807.44;4990850;28;20167;-58
2022/01/26 09:38:48;;;;;;;10.55;5.78;;;;;;;-2.01;68.65;98809.41;5008204;28;20538;-58
2022/01/26 09:41:14;;;;;;;11.80;4.90;;;;;;;-1.99;68.43;98806.63;5009945;28;20088;-60
2022/01/26 09:43:40;;;;;;;6.90;4.35;;;;;;;-2.04;68.01;98817.53;4993487;28;20042;-58
2022/01/26 09:46:06;;;;;;;11.52;5.00;;;;;;;-1.95;68.44;98821.69;5008934;28;20053;-59
2022/01/26 09:48:34;;;;;;;9.95;5.18;;;;;;;-2.12;67.97;98813.19;5008910;28;20045;-59
2022/01/26 09:51:00;;;;;;;8.05;4.55;;;;;;;-2.20;67.97;98822.81;5009084;28;20081;-59
2022/01/26 09:53:30;;;;;;;8.43;3.90;;;;;;;-2.14;68.05;98812.56;5007331;28;20482;-60
2022/01/26 09:55:58;;;;;;;9.77;4.70;;;;;;;-1.95;67.20;98823.50;5010417;28;20061;-56
2022/01/26 09:58:26;;;;;;;6.13;3.13;;;;;;;-2.16;66.88;98824.88;4977062;28;20041;-59
2022/01/26 10:01:02;;;;;;;6.95;4.00;;;;;;;-2.37;68.15;98817.69;5008364;28;20038;-59
2022/01/26 10:03:32;;;;;;;9.02;4.35;;;;;;;-2.25;67.67;98830.28;5007867;28;20037;-60
2022/01/26 10:05:57;;;;;;;11.60;4.93;;;;;;;-2.40;68.27;98827.59;5008724;28;20053;-58
2022/01/26 10:19:03;;;;;;;9.93;4.25;;;;;;;-2.04;67.48;98827.13;5026104;28;20037;-59
2022/01/26 10:21:30;;;;;;;9.82;5.70;;;;;;;-2.11;67.96;98819.19;5024926;28;20044;-56
2022/01/26 10:24:08;;;;;;;8.70;4.38;;;;;;;-2.02;67.61;98825.16;5024636;28;20213;-60
2022/01/26 10:26:34;;;;;;;10.95;4.22;;;;;;;-2.00;67.08;98830.97;5025413;28;20422;-58
2022/01/26 10:29:03;;;;;;;7.13;4.35;;;;;;;-2.12;67.85;98821.00;5026368;28;20081;-59
2022/01/26 10:31:32;;;;;;;7.10;3.75;;;;;;;-2.12;67.47;98820.16;5027825;28;20581;-60
2022/01/26 10:34:06;;;;;;;11.05;5.75;;;;;;;-1.94;67.89;98827.69;5027409;28;20041;-62
2022/01/26 10:36:35;;;;;;;6.15;4.18;;;;;;;-2.02;67.06;98820.78;5028389;28;20688;-59
2022/01/26 10:39:28;;;;;;;7.78;3.55;;;;;;;-2.11;67.64;98814.00;5026405;28;20076;-60
2022/01/26 10:41:59;;;;;;;12.27;3.85;;;;;;;-2.11;67.41;98827.78;5007056;28;20053;-59
2022/01/26 10:44:47;;;;;;;;;;;;;;;-2.13;67.96;98821.94;5008347;28;20054;-59
2022/01/26 10:47:15;;;;;;;6.05;3.53;;;;;;;-2.17;67.15;98823.28;5026651;28;19925;-59
2022/01/26 10:52:25;;;;;;;5.95;3.53;;;;;;;-2.14;67.71;98830.72;5028529;28;20502;-61
2022/01/26 10:54:51;;;;;;;8.35;4.07;;;;;;;-2.07;67.74;98823.06;5027400;28;20457;-59
2022/01/26 10:57:17;;;;;;;9.18;4.10;;;;;;;-2.11;68.29;98817.41;5006319;28;20728;-59
2022/01/26 10:59:45;;;;;;;7.85;3.42;;;;;;;-2.04;68.03;98821.91;5006739;28;20046;-59
2022/01/26 11:02:11;;;;;;;9.75;5.35;;;;;;;-1.96;67.80;98833.06;5004874;28;20108;-58
2022/01/26 11:04:42;;;;;;;7.57;4.25;;;;;;;-2.07;68.42;98823.88;5027661;28;20067;-59
2022/01/26 11:07:09;;;;;;;10.02;4.88;;;;;;;-1.89;68.49;98817.59;5010453;28;20596;-61
2022/01/26 11:09:38;;;;;;;5.50;3.92;;;;;;;-2.02;68.04;98827.75;5026645;28;20049;-58
2022/01/26 11:12:06;;;;;;;10.73;4.82;;;;;;;-1.94;68.15;98828.53;4992167;28;20525;-58
2022/01/26 11:14:47;;;;;;;6.38;3.85;;;;;;;-1.92;68.13;98820.56;5026201;28;20815;-59
2022/01/26 11:17:28;;;;;;;6.85;4.28;;;;;;;-1.78;68.28;98814.63;5025056;28;20049;-59
2022/01/26 11:19:57;;;;;;;9.43;5.88;;;;;;;-1.78;67.86;98816.41;5011414;28;20104;-61
2022/01/26 11:22:28;;;;;;;7.97;4.60;;;;;;;-1.82;67.48;98834.16;5005352;28;20124;-57
2022/01/26 11:24:55;;;;;;;6.30;4.25;;;;;;;-1.79;66.91;98823.41;5016373;28;20047;-60
2022/01/26 11:27:21;;;;;;;8.38;4.15;;;;;;;-1.83;67.26;98842.91;5026685;28;20049;-58
2022/01/26 11:29:53;;;;;;;7.20;4.60;;;;;;;-2.17;67.83;98805.09;5027493;28;20054;-58
2022/01/26 11:32:33;;;;;;;7.60;4.50;;;;;;;-1.97;67.98;98833.22;5009843;28;20041;-59
2022/01/26 11:35:05;;;;;;;9.32;3.72;;;;;;;-2.15;68.19;98831.69;5026240;28;20065;-60
2022/01/26 11:37:39;;;;;;;8.38;4.13;;;;;;;-1.82;68.05;98834.16;5008713;28;20068;-60
2022/01/26 11:45:34;;;;;;;8.05;4.05;;;;;;;-1.68;67.46;98829.97;5028214;28;20115;-56
2022/01/26 11:48:09;;;;;;;6.25;3.63;;;;;;;-1.58;67.71;98838.38;5031000;28;20426;-60
2022/01/26 11:50:42;;;;;;;8.75;3.53;;;;;;;-1.52;67.35;98842.88;5031798;28;20073;-59
2022/01/26 11:53:15;;;;;;;7.38;4.05;;;;;;;-1.60;67.89;98835.13;5028535;28;20271;-59
2022/01/26 11:55:52;;;;;;;8.40;3.95;;;;;;;-1.67;67.59;98840.22;5012502;28;20507;-59
2022/01/26 11:58:46;;;;;;;6.95;3.63;;;;;;;-1.68;67.60;98837.78;4994845;28;20033;-58
2022/01/26 12:01:29;;;;;;;9.82;5.30;;;;;;;-1.40;68.43;98833.69;4993772;28;20049;-60
2022/01/26 12:04:06;;;;;;;5.97;3.85;;;;;;;-1.28;67.40;98831.50;5026277;28;20042;-60
2022/01/26 12:06:36;;;;;;;10.50;3.85;;;;;;;-1.31;67.72;98834.44;5028353;28;20131;-58
2022/01/26 12:09:04;;;;;;;9.20;4.38;;;;;;;-1.23;67.34;98839.59;5030361;28;20045;-59
2022/01/26 12:11:30;;;;;;;7.07;3.72;;;;;;;-1.33;67.72;98841.59;5031372;28;20128;-59
2022/01/26 12:14:10;;;;;;;7.28;4.45;;;;;;;-1.40;67.86;98838.09;5031014;28;20120;-57
2022/01/26 12:16:46;;;;;;;7.85;3.92;;;;;;;-1.41;67.62;98845.09;5030784;28;20455;-59
2022/01/26 12:36:13;;;;;;;8.60;3.75;;;;;;;-1.83;68.74;98854.09;5027599;28;20068;-63
2022/01/26 12:38:49;;;;;;;8.30;3.70;;;;;;;-1.88;69.23;98853.00;5009697;28;20114;-60
2022/01/26 12:43:56;;;;;;;5.95;3.17;;;;;;;-1.85;69.97;98850.88;5009947;28;20565;-59
2022/01/26 12:46:29;;;;;;;5.22;3.13;;;;;;;-1.89;69.57;98852.19;4996123;28;20045;-62
2022/01/26 12:48:57;;;;;;;9.85;3.08;;;;;;;-1.92;70.18;98847.31;5029305;28;20495;-60
2022/01/26 12:51:23;;;;;;;5.00;3.25;;;;;;;-1.97;70.39;98847.06;5025799;28;20037;-62
2022/01/26 12:53:58;;;;;;;8.15;3.28;;;;;;;-2.01;70.21;98848.34;5029172;28;20447;-61
2022/01/26 12:56:30;;;;;;;7.75;3.83;;;;;;;-2.05;69.99;98849.69;5029295;28;20095;-59
2022/01/26 12:59:02;;;;;;;6.32;3.65;;;;;;;-2.16;70.16;98857.84;5027648;28;20037;-61
2022/01/26 13:01:28;;;;;;;6.00;2.50;;;;;;;-2.21;70.31;98850.53;5027262;28;20037;-60
2022/01/26 13:04:02;;;;;;;4.25;2.05;;;;;;;-2.23;70.03;98851.72;5028165;28;20037;-62
2022/01/26 13:06:31;;;;;;;4.57;2.00;;;;;;;-2.22;69.87;98848.94;5008071;28;20570;-62
2022/01/26 13:08:59;;;;;;;3.22;2.30;;;;;;;-2.34;70.28;98851.09;5009562;28;20046;-62
2022/01/26 13:11:33;;;;;;;5.10;2.65;;;;;;;-2.37;70.39;98848.03;5009799;28;20041;-60
2022/01/26 13:14:19;;;;;;;6.57;2.22;;;;;;;-2.40;70.18;98856.94;5029339;28;20048;-61
2022/01/26 13:17:18;;;;;;;4.93;2.35;;;;;;;-2.38;70.10;98854.16;5012569;28;20645;-61
2022/01/26 13:20:12;;;;;;;4.28;2.50;;;;;;;-2.45;70.76;98853.22;5029944;28;20045;-61
2022/01/26 13:25:42;;;;;;;2.30;2.10;;;;;;;-2.59;70.46;98847.78;5027877;28;20049;-62
2022/01/26 13:28:22;;;;;;;5.55;2.80;;;;;;;-2.50;70.30;98861.50;5030145;28;20403;-61
2022/01/26 13:31:11;;;;;;;6.18;2.40;;;;;;;-2.42;69.96;98848.50;5029543;28;20127;-61
2022/01/26 13:36:51;;;;;;;6.13;3.42;;;;;;;-2.46;69.73;98865.41;5039559;28;20064;-59
2022/01/26 13:42:20;;;;;;;3.78;2.30;;;;;;;-2.62;69.68;98865.44;5012033;28;20033;-57
2022/01/26 13:57:15;;;;;;;3.55;2.13;;;;;;;-2.87;69.29;98890.59;5007691;28;20042;-61
2022/01/26 13:59:47;;;;;;;3.05;1.98;;;;;;;-2.89;69.62;98880.38;5009154;28;20053;-61
2022/01/26 14:02:13;;;;;;;3.75;2.10;;;;;;;-2.81;68.88;98889.94;5008757;28;20133;-59
2022/01/26 14:04:39;;;;;;;3.92;2.10;;;;;;;-2.83;69.56;98889.28;5009794;28;20066;-60
2022/01/26 14:07:06;;;;;;;3.88;2.30;;;;;;;-2.84;70.02;98887.69;5009206;28;20049;-60
2022/01/26 14:09:32;;;;;;;6.35;3.33;;;;;;;-2.85;70.40;98897.25;5005756;28;20053;-61
2022/01/26 14:11:59;;;;;;;9.27;3.60;;;;;;;-2.90;69.94;98901.31;5008231;28;20060;-60
2022/01/26 14:14:32;;;;;;;10.68;5.28;;;;;;;-2.89;70.20;98911.50;5006685;28;20161;-59